Time;durP1;ratioP1;P1;durP2;ratioP2;P2;SDS_P1;SDS_P2;PMS_P1;PMS_P2;Temp;Humidity;BMP_temperature;BMP_pressure;BME280_temperature;BME280_humidity;BME280_pressure;Samples;Min_cycle;Max_cycle;Signal;HPM_P1;HPM_P2
2022/12/20 00:01:58;;;;;;;34.77;18.63;;;;;;;;;;5021238;28;20642;-81
2022/12/20 00:05:02;;;;;;;32.57;18.07;;;;;;;;;;4987699;28;20627;-81
2022/12/20 00:08:07;;;;;;;30.93;17.17;;;;;;;;;;5009776;28;20553;-82
2022/12/20 00:11:11;;;;;;;30.83;17.33;;;;;;;;;;4999245;28;21217;-82
2022/12/20 00:14:16;;;;;;;31.37;17.27;;;;;;;;;;4999062;28;20543;-81
2022/12/20 00:17:21;;;;;;;31.60;17.67;;;;;;;;;;4998772;28;20551;-82
2022/12/20 00:20:26;;;;;;;30.37;16.73;;;;;;;;;;4998620;28;21094;-80
2022/12/20 00:23:31;;;;;;;32.10;18.33;;;;;;;;;;5009445;28;21173;-81
2022/12/20 00:26:36;;;;;;;35.40;17.53;;;;;;;;;;4987207;28;20548;-82
2022/12/20 00:29:41;;;;;;;32.80;18.00;;;;;;;;;;5009041;28;20564;-81
2022/12/20 00:32:45;;;;;;;29.97;17.43;;;;;;;;;;5008967;28;21181;-81
2022/12/20 00:35:51;;;;;;;32.67;18.20;;;;;;;;;;5020064;28;20556;-82
2022/12/20 00:38:59;;;;;;;33.77;18.77;;;;;;;;;;5020588;28;20560;-82
2022/12/20 00:42:03;;;;;;;31.77;17.33;;;;;;;;;;5007912;28;20663;-81
2022/12/20 00:45:08;;;;;;;30.17;17.47;;;;;;;;;;4996998;28;20599;-79
2022/12/20 00:48:12;;;;;;;30.53;17.60;;;;;;;;;;5008594;28;20623;-80
2022/12/20 00:51:19;;;;;;;31.47;17.13;;;;;;;;;;4994649;28;20630;-80
2022/12/20 00:54:23;;;;;;;33.90;17.97;;;;;;;;;;4996036;28;20539;-81
2022/12/20 00:57:27;;;;;;;29.97;17.93;;;;;;;;;;5019603;28;20544;-82
2022/12/20 01:00:31;;;;;;;35.57;18.93;;;;;;;;;;4985801;28;20551;-81
2022/12/20 01:03:35;;;;;;;36.33;18.70;;;;;;;;;;5007771;28;20599;-81
2022/12/20 01:06:39;;;;;;;36.67;20.03;;;;;;;;;;4986173;28;21122;-81
2022/12/20 01:09:44;;;;;;;31.17;18.60;;;;;;;;;;4996469;28;20548;-81
2022/12/20 01:12:48;;;;;;;32.07;18.03;;;;;;;;;;4997513;28;20540;-81
2022/12/20 01:15:52;;;;;;;35.43;17.97;;;;;;;;;;5019070;28;20601;-81
2022/12/20 01:18:57;;;;;;;35.80;19.13;;;;;;;;;;4997588;28;20548;-81
2022/12/20 01:22:01;;;;;;;34.17;18.00;;;;;;;;;;4985963;28;20642;-81
2022/12/20 01:25:05;;;;;;;32.47;17.37;;;;;;;;;;5019932;28;20549;-81
2022/12/20 01:28:10;;;;;;;30.90;17.60;;;;;;;;;;4986284;28;20619;-81
2022/12/20 01:31:16;;;;;;;32.73;17.83;;;;;;;;;;5006867;28;20634;-82
2022/12/20 01:34:20;;;;;;;33.80;18.77;;;;;;;;;;5030538;28;20556;-82
2022/12/20 01:37:24;;;;;;;32.57;17.87;;;;;;;;;;4996384;28;20556;-81
2022/12/20 01:40:28;;;;;;;33.63;18.10;;;;;;;;;;4996944;28;20975;-80
2022/12/20 01:44:05;;;;;;;30.30;17.67;;;;;;;;;;5018764;28;20963;-80
2022/12/20 01:47:11;;;;;;;35.37;17.73;;;;;;;;;;5019555;28;20612;-82
2022/12/20 01:50:15;;;;;;;28.07;16.63;;;;;;;;;;5007109;28;20615;-80
2022/12/20 01:53:22;;;;;;;34.97;18.50;;;;;;;;;;4996438;28;20599;-80
2022/12/20 01:56:26;;;;;;;28.43;15.93;;;;;;;;;;5007114;28;20540;-81
2022/12/20 01:59:34;;;;;;;31.27;17.40;;;;;;;;;;4984129;28;20615;-81
2022/12/20 02:02:39;;;;;;;30.93;18.10;;;;;;;;;;4995208;28;21196;-80
2022/12/20 02:05:45;;;;;;;30.97;17.47;;;;;;;;;;5020924;28;20615;-82
2022/12/20 02:08:53;;;;;;;32.83;19.00;;;;;;;;;;4998604;28;20564;-81
2022/12/20 02:12:11;;;;;;;30.47;17.13;;;;;;;;;;5020818;28;20647;-82
2022/12/20 02:15:32;;;;;;;30.63;18.27;;;;;;;;;;5009766;28;20899;-79
2022/12/20 02:18:44;;;;;;;29.47;17.90;;;;;;;;;;4998803;28;20548;-80
2022/12/20 02:22:03;;;;;;;29.63;16.83;;;;;;;;;;4998458;28;20654;-81
2022/12/20 02:25:19;;;;;;;29.00;17.00;;;;;;;;;;5011375;28;20607;-82
2022/12/20 02:28:35;;;;;;;30.17;17.77;;;;;;;;;;4988556;28;20564;-81
2022/12/20 02:31:56;;;;;;;35.93;17.73;;;;;;;;;;4989423;28;20623;-80
2022/12/20 02:35:01;;;;;;;32.33;17.53;;;;;;;;;;5007106;28;21038;-80
2022/12/20 02:38:34;;;;;;;31.23;16.90;;;;;;;;;;4984504;28;20540;-80
2022/12/20 02:41:45;;;;;;;31.53;17.57;;;;;;;;;;4984436;28;20619;-81
2022/12/20 02:48:20;;;;;;;32.70;17.40;;;;;;;;;;4995207;28;20903;-82
2022/12/20 02:51:27;;;;;;;32.80;17.10;;;;;;;;;;5017961;28;20619;-82
2022/12/20 02:54:34;;;;;;;35.47;17.30;;;;;;;;;;5000780;28;21098;-81
2022/12/20 02:57:38;;;;;;;32.03;17.97;;;;;;;;;;5001989;28;20552;-81
2022/12/20 03:00:46;;;;;;;29.97;17.57;;;;;;;;;;4989630;28;20626;-80
2022/12/20 03:03:53;;;;;;;31.43;17.93;;;;;;;;;;5002602;28;20603;-80
2022/12/20 03:07:03;;;;;;;30.80;17.57;;;;;;;;;;5001429;28;20553;-79
2022/12/20 03:10:08;;;;;;;28.43;16.37;;;;;;;;;;5001903;28;20549;-81
2022/12/20 03:13:12;;;;;;;33.60;18.10;;;;;;;;;;5000336;28;20576;-81
2022/12/20 03:16:24;;;;;;;31.60;17.00;;;;;;;;;;5001313;28;20991;-81
2022/12/20 03:19:29;;;;;;;29.40;17.77;;;;;;;;;;5023518;28;21094;-81
2022/12/20 03:22:34;;;;;;;35.57;18.77;;;;;;;;;;5002134;28;20635;-81
2022/12/20 03:25:39;;;;;;;34.13;17.43;;;;;;;;;;5002519;28;20549;-82
2022/12/20 03:28:44;;;;;;;30.03;17.67;;;;;;;;;;4992097;28;20915;-82
2022/12/20 03:31:52;;;;;;;33.10;17.50;;;;;;;;;;5001709;28;20994;-81
2022/12/20 03:34:56;;;;;;;33.83;18.50;;;;;;;;;;5001460;28;20887;-81
2022/12/20 03:38:08;;;;;;;33.23;18.23;;;;;;;;;;4992025;28;21102;-81
2022/12/20 03:41:12;;;;;;;33.67;17.77;;;;;;;;;;4990720;28;20631;-80
2022/12/20 03:44:16;;;;;;;30.40;16.77;;;;;;;;;;5028640;28;20655;-81
2022/12/20 03:47:20;;;;;;;29.27;17.43;;;;;;;;;;4984032;28;20614;-81
2022/12/20 03:50:25;;;;;;;31.57;18.30;;;;;;;;;;4983885;28;20963;-79
2022/12/20 03:53:29;;;;;;;28.23;17.03;;;;;;;;;;4983207;28;20600;-80
2022/12/20 03:56:34;;;;;;;31.27;17.20;;;;;;;;;;5017534;28;20552;-81
2022/12/20 03:59:39;;;;;;;34.60;19.30;;;;;;;;;;5008110;28;20615;-81
2022/12/20 04:02:46;;;;;;;34.67;18.73;;;;;;;;;;4987174;28;20627;-80
2022/12/20 04:05:50;;;;;;;31.30;17.30;;;;;;;;;;5018190;28;20626;-81
2022/12/20 04:08:54;;;;;;;29.50;17.37;;;;;;;;;;4984185;28;20973;-79
2022/12/20 04:12:06;;;;;;;29.97;17.40;;;;;;;;;;4987822;28;20640;-80
2022/12/20 04:15:12;;;;;;;29.10;16.53;;;;;;;;;;5011514;28;20544;-80
2022/12/20 04:18:18;;;;;;;31.77;17.40;;;;;;;;;;5000376;28;20552;-81
2022/12/20 04:21:26;;;;;;;26.10;16.67;;;;;;;;;;5010294;28;20631;-81
2022/12/20 04:24:33;;;;;;;34.87;16.53;;;;;;;;;;4999328;28;20650;-81
2022/12/20 04:27:47;;;;;;;29.03;15.77;;;;;;;;;;4999317;28;20572;-82
2022/12/20 04:30:51;;;;;;;30.50;16.60;;;;;;;;;;5007888;28;20622;-81
2022/12/20 04:34:00;;;;;;;30.27;17.43;;;;;;;;;;5005322;28;20544;-81
2022/12/20 04:37:06;;;;;;;33.37;16.90;;;;;;;;;;4983933;28;20919;-78
2022/12/20 04:40:24;;;;;;;29.60;16.03;;;;;;;;;;5005668;28;20552;-80
2022/12/20 04:43:33;;;;;;;30.47;16.93;;;;;;;;;;4994704;28;21180;-80
2022/12/20 04:46:37;;;;;;;29.03;16.13;;;;;;;;;;4995208;28;20599;-79
2022/12/20 04:49:44;;;;;;;27.60;15.73;;;;;;;;;;4996544;28;20556;-78
2022/12/20 04:56:13;;;;;;;26.80;15.70;;;;;;;;;;4995024;28;20548;-79
2022/12/20 04:59:17;;;;;;;27.57;15.10;;;;;;;;;;4984080;28;20559;-79
2022/12/20 05:02:25;;;;;;;28.57;16.77;;;;;;;;;;5029400;28;20635;-79
2022/12/20 05:05:34;;;;;;;28.20;15.97;;;;;;;;;;4999732;28;20663;-79
2022/12/20 05:08:39;;;;;;;26.67;16.40;;;;;;;;;;5022861;28;20544;-79
2022/12/20 05:11:43;;;;;;;24.80;15.47;;;;;;;;;;4999237;28;20623;-79
2022/12/20 05:14:47;;;;;;;29.20;15.20;;;;;;;;;;4999244;28;20548;-79
2022/12/20 05:17:58;;;;;;;26.97;16.93;;;;;;;;;;5009623;28;20548;-79
2022/12/20 05:28:05;;;;;;;28.50;15.73;;;;;;;;;;5009219;28;20548;-79
2022/12/20 05:31:13;;;;;;;27.03;15.37;;;;;;;;;;5008141;28;20623;-79
2022/12/20 05:34:17;;;;;;;34.47;16.93;;;;;;;;;;4985089;28;20544;-79
2022/12/20 05:37:26;;;;;;;23.87;14.83;;;;;;;;;;4984433;28;20956;-79
2022/12/20 05:40:32;;;;;;;26.33;14.87;;;;;;;;;;5010604;28;20544;-79
2022/12/20 05:43:36;;;;;;;27.57;14.90;;;;;;;;;;5033357;28;20555;-79
2022/12/20 05:46:42;;;;;;;28.67;16.07;;;;;;;;;;4988404;28;20532;-79
2022/12/20 05:49:52;;;;;;;28.00;15.60;;;;;;;;;;5000854;28;20551;-79
2022/12/20 05:52:56;;;;;;;30.07;15.43;;;;;;;;;;5011363;28;20548;-79
2022/12/20 05:56:01;;;;;;;28.73;15.83;;;;;;;;;;4988232;28;20548;-79
2022/12/20 05:59:10;;;;;;;24.67;15.33;;;;;;;;;;4989354;28;20567;-79
2022/12/20 06:02:15;;;;;;;23.97;15.23;;;;;;;;;;5021876;28;20630;-79
2022/12/20 06:05:20;;;;;;;26.97;15.13;;;;;;;;;;5019614;28;20667;-80
2022/12/20 06:08:25;;;;;;;25.80;15.60;;;;;;;;;;5008496;28;20563;-79
2022/12/20 06:11:30;;;;;;;30.57;16.83;;;;;;;;;;4997562;28;20632;-79
2022/12/20 06:14:47;;;;;;;30.17;17.43;;;;;;;;;;5006203;28;20540;-80
2022/12/20 06:17:51;;;;;;;27.53;15.67;;;;;;;;;;4987234;28;20610;-80
2022/12/20 06:20:56;;;;;;;29.67;16.13;;;;;;;;;;4986822;28;20634;-79
2022/12/20 06:24:01;;;;;;;26.90;15.53;;;;;;;;;;4986498;28;20559;-78
2022/12/20 06:27:07;;;;;;;27.20;15.77;;;;;;;;;;4985878;28;20595;-78
2022/12/20 06:30:12;;;;;;;25.93;15.40;;;;;;;;;;4987645;28;20619;-79
2022/12/20 06:33:36;;;;;;;28.33;15.50;;;;;;;;;;5001274;28;20552;-79
2022/12/20 06:36:40;;;;;;;25.97;15.87;;;;;;;;;;5031692;28;21174;-78
2022/12/20 06:39:47;;;;;;;30.40;17.03;;;;;;;;;;5031826;28;20540;-79
2022/12/20 06:42:52;;;;;;;41.73;23.37;;;;;;;;;;4998323;28;20548;-79
2022/12/20 06:45:59;;;;;;;39.40;23.77;;;;;;;;;;4987309;28;20600;-78
2022/12/20 06:49:03;;;;;;;39.47;21.27;;;;;;;;;;4986792;28;20611;-79
2022/12/20 06:52:08;;;;;;;31.57;17.97;;;;;;;;;;4987334;28;20995;-79
2022/12/20 06:55:21;;;;;;;27.43;15.70;;;;;;;;;;5000593;28;20552;-79
2022/12/20 06:58:26;;;;;;;29.03;16.10;;;;;;;;;;5009560;28;21094;-79
2022/12/20 07:01:30;;;;;;;30.00;16.13;;;;;;;;;;4998178;28;21208;-79
2022/12/20 07:04:34;;;;;;;28.67;16.20;;;;;;;;;;5020090;28;20607;-79
2022/12/20 07:07:40;;;;;;;26.57;16.47;;;;;;;;;;4997837;28;20552;-79
2022/12/20 07:10:44;;;;;;;28.43;16.23;;;;;;;;;;4998479;28;20629;-79
2022/12/20 07:13:49;;;;;;;31.43;16.50;;;;;;;;;;5009013;28;20893;-79
2022/12/20 07:16:53;;;;;;;29.27;16.77;;;;;;;;;;4997848;28;20689;-79
2022/12/20 07:19:57;;;;;;;26.37;15.53;;;;;;;;;;4997471;28;20565;-79
2022/12/20 07:23:02;;;;;;;28.43;16.47;;;;;;;;;;4986361;28;20551;-79
2022/12/20 07:26:06;;;;;;;32.20;17.03;;;;;;;;;;5020095;28;20596;-79
2022/12/20 07:29:14;;;;;;;24.80;15.70;;;;;;;;;;5008472;28;20549;-79
2022/12/20 07:32:18;;;;;;;26.47;15.27;;;;;;;;;;5020374;28;20631;-78
2022/12/20 07:35:22;;;;;;;27.17;15.63;;;;;;;;;;4997015;28;20546;-79
2022/12/20 07:38:26;;;;;;;27.87;16.57;;;;;;;;;;5018332;28;20551;-78
2022/12/20 07:41:31;;;;;;;24.43;15.67;;;;;;;;;;4995493;28;20635;-78
2022/12/20 07:44:35;;;;;;;24.90;16.13;;;;;;;;;;5017587;28;20552;-78
2022/12/20 07:47:39;;;;;;;29.77;15.70;;;;;;;;;;4996781;28;20540;-79
2022/12/20 07:50:43;;;;;;;27.60;16.40;;;;;;;;;;4996856;28;20633;-79
2022/12/20 07:53:53;;;;;;;24.13;14.40;;;;;;;;;;4986144;28;20555;-79
2022/12/20 07:57:00;;;;;;;26.73;16.10;;;;;;;;;;4997296;28;20541;-79
2022/12/20 08:00:06;;;;;;;25.43;16.87;;;;;;;;;;4997751;28;20907;-79
2022/12/20 08:03:30;;;;;;;24.47;15.03;;;;;;;;;;4998234;28;20556;-79
2022/12/20 08:06:36;;;;;;;27.43;16.37;;;;;;;;;;4996028;28;20670;-79
2022/12/20 08:09:42;;;;;;;26.80;16.10;;;;;;;;;;5007937;28;20549;-79
2022/12/20 08:12:47;;;;;;;30.17;16.40;;;;;;;;;;4995901;28;20616;-80
2022/12/20 08:15:51;;;;;;;38.23;24.17;;;;;;;;;;4996069;28;20604;-79
2022/12/20 08:18:55;;;;;;;28.77;18.27;;;;;;;;;;5030460;28;20684;-79
2022/12/20 08:22:00;;;;;;;27.73;16.80;;;;;;;;;;4996489;28;20647;-79
2022/12/20 08:25:04;;;;;;;28.00;16.23;;;;;;;;;;5007142;28;20664;-79
2022/12/20 08:28:08;;;;;;;38.33;21.83;;;;;;;;;;5029731;28;20623;-78
2022/12/20 08:31:12;;;;;;;33.13;19.27;;;;;;;;;;5007113;28;20639;-79
2022/12/20 08:34:17;;;;;;;29.90;18.20;;;;;;;;;;5018354;28;20560;-79
2022/12/20 08:37:21;;;;;;;26.30;16.27;;;;;;;;;;4995666;28;20548;-79
2022/12/20 08:40:25;;;;;;;25.43;16.37;;;;;;;;;;4995086;28;20548;-79
2022/12/20 08:43:31;;;;;;;27.77;17.00;;;;;;;;;;5006918;28;20564;-78
2022/12/20 08:46:36;;;;;;;27.97;16.43;;;;;;;;;;5006755;28;20621;-80
2022/12/20 08:49:40;;;;;;;27.33;16.03;;;;;;;;;;4986434;28;20560;-80
2022/12/20 08:52:44;;;;;;;24.53;14.40;;;;;;;;;;4985394;28;20636;-79
2022/12/20 08:55:50;;;;;;;26.20;14.97;;;;;;;;;;5018745;28;20554;-81
2022/12/20 08:58:54;;;;;;;26.67;15.83;;;;;;;;;;4994576;28;20541;-79
2022/12/20 09:01:58;;;;;;;27.10;15.00;;;;;;;;;;4984837;28;20627;-80
2022/12/20 09:05:03;;;;;;;25.70;15.20;;;;;;;;;;5008686;28;20623;-79
2022/12/20 09:08:08;;;;;;;23.53;15.10;;;;;;;;;;4997059;28;20557;-79
2022/12/20 09:11:13;;;;;;;23.10;15.10;;;;;;;;;;4985666;28;20619;-79
2022/12/20 09:14:18;;;;;;;23.90;14.53;;;;;;;;;;5013476;28;20556;-80
2022/12/20 09:17:23;;;;;;;25.93;15.87;;;;;;;;;;5015042;28;20906;-79
2022/12/20 09:20:28;;;;;;;23.20;14.73;;;;;;;;;;5010679;28;20552;-78
2022/12/20 09:23:34;;;;;;;23.07;14.27;;;;;;;;;;5011074;28;20904;-79
2022/12/20 09:26:39;;;;;;;23.43;14.93;;;;;;;;;;5010234;28;20658;-78
2022/12/20 09:29:44;;;;;;;22.33;14.33;;;;;;;;;;5021353;28;20198;-77
2022/12/20 09:32:48;;;;;;;23.03;13.50;;;;;;;;;;5008564;28;20600;-77
2022/12/20 09:35:53;;;;;;;23.50;13.07;;;;;;;;;;5019900;28;20204;-77
2022/12/20 09:38:57;;;;;;;19.90;13.47;;;;;;;;;;5009168;28;20539;-77
2022/12/20 09:42:06;;;;;;;21.13;14.00;;;;;;;;;;4986804;28;20691;-77
2022/12/20 09:45:24;;;;;;;21.87;13.73;;;;;;;;;;4999262;28;20189;-77
2022/12/20 09:48:32;;;;;;;19.00;11.17;;;;;;;;;;5011172;28;20182;-77
2022/12/20 09:51:43;;;;;;;20.90;12.17;;;;;;;;;;4999290;28;20230;-77
2022/12/20 09:55:41;;;;;;;21.53;12.97;;;;;;;;;;5023286;28;20193;-76
2022/12/20 09:58:50;;;;;;;20.30;12.60;;;;;;;;;;4982481;28;20193;-76
2022/12/20 10:01:55;;;;;;;20.90;13.23;;;;;;;;;;4998346;28;20221;-77
2022/12/20 10:05:00;;;;;;;21.07;14.43;;;;;;;;;;5021822;28;20201;-77
2022/12/20 10:08:14;;;;;;;19.63;12.27;;;;;;;;;;5009989;28;20189;-76
2022/12/20 10:11:44;;;;;;;15.90;10.60;;;;;;;;;;5021720;28;20576;-76
2022/12/20 10:15:20;;;;;;;18.83;11.20;;;;;;;;;;5010085;28;20190;-76
2022/12/20 10:18:39;;;;;;;20.23;12.80;;;;;;;;;;5010742;28;20182;-77
2022/12/20 10:21:59;;;;;;;20.70;13.23;;;;;;;;;;5010243;28;20225;-76
2022/12/20 10:25:17;;;;;;;18.50;12.90;;;;;;;;;;5020585;28;20656;-76
2022/12/20 10:28:28;;;;;;;27.43;17.00;;;;;;;;;;5022546;28;20179;-76
2022/12/20 10:31:33;;;;;;;24.73;14.40;;;;;;;;;;5022249;28;20220;-77
2022/12/20 10:34:37;;;;;;;20.87;12.60;;;;;;;;;;5022297;28;20188;-76
2022/12/20 10:37:57;;;;;;;17.57;11.53;;;;;;;;;;5022081;28;20185;-77
2022/12/20 10:41:02;;;;;;;21.80;11.97;;;;;;;;;;5010690;28;20213;-77
2022/12/20 10:44:24;;;;;;;19.10;12.53;;;;;;;;;;5022240;28;20185;-77
2022/12/20 10:47:41;;;;;;;18.60;11.77;;;;;;;;;;5024552;28;20209;-77
2022/12/20 10:51:09;;;;;;;19.53;12.43;;;;;;;;;;5024343;28;20220;-77
2022/12/20 10:54:30;;;;;;;19.90;13.43;;;;;;;;;;5016891;28;20182;-77
2022/12/20 10:57:34;;;;;;;23.07;15.77;;;;;;;;;;4992604;28;20195;-77
2022/12/20 11:00:39;;;;;;;21.80;14.93;;;;;;;;;;5003676;28;20183;-77
2022/12/20 11:04:26;;;;;;;22.50;14.53;;;;;;;;;;5015740;28;20192;-77
2022/12/20 11:07:32;;;;;;;25.53;17.63;;;;;;;;;;5003288;28;20220;-77
2022/12/20 11:10:37;;;;;;;20.20;12.67;;;;;;;;;;5015838;28;20189;-77
2022/12/20 11:13:43;;;;;;;19.73;12.43;;;;;;;;;;5026045;28;20189;-77
2022/12/20 11:16:50;;;;;;;20.33;12.50;;;;;;;;;;5014302;28;20572;-77
2022/12/20 11:20:07;;;;;;;18.40;12.07;;;;;;;;;;5003288;28;20190;-77
2022/12/20 11:23:29;;;;;;;20.27;12.93;;;;;;;;;;5003292;28;20572;-76
2022/12/20 11:26:39;;;;;;;17.40;11.93;;;;;;;;;;5014949;28;20213;-77
2022/12/20 11:29:54;;;;;;;18.20;12.17;;;;;;;;;;5003064;28;20186;-77
2022/12/20 11:33:17;;;;;;;21.37;13.20;;;;;;;;;;5015208;28;20544;-77
2022/12/20 11:36:45;;;;;;;22.30;14.17;;;;;;;;;;4991983;28;20183;-77
2022/12/20 11:40:08;;;;;;;20.43;13.33;;;;;;;;;;5002983;28;20188;-77
2022/12/20 11:44:00;;;;;;;22.93;13.23;;;;;;;;;;5014949;28;20197;-77
2022/12/20 11:47:26;;;;;;;18.20;12.97;;;;;;;;;;4982224;28;20240;-78
2022/12/20 11:50:52;;;;;;;20.70;13.27;;;;;;;;;;4983957;28;20180;-78
2022/12/20 11:54:15;;;;;;;27.03;14.23;;;;;;;;;;4986712;28;20546;-78
2022/12/20 11:57:27;;;;;;;22.10;13.73;;;;;;;;;;4986260;28;20182;-78
2022/12/20 12:00:35;;;;;;;30.57;18.97;;;;;;;;;;4997783;28;20189;-79
2022/12/20 12:03:45;;;;;;;39.90;25.37;;;;;;;;;;4998767;28;20199;-79
2022/12/20 12:07:03;;;;;;;21.83;13.73;;;;;;;;;;5020818;28;20226;-78
2022/12/20 12:10:23;;;;;;;19.30;12.93;;;;;;;;;;4998174;28;20182;-79
2022/12/20 12:13:31;;;;;;;21.63;13.43;;;;;;;;;;4987532;28;20182;-78
2022/12/20 12:16:44;;;;;;;21.10;13.03;;;;;;;;;;5010526;28;20185;-79
2022/12/20 12:19:50;;;;;;;20.50;13.37;;;;;;;;;;4998488;28;20187;-79
2022/12/20 12:23:36;;;;;;;22.43;13.53;;;;;;;;;;4998767;28;20662;-79
2022/12/20 12:26:40;;;;;;;19.33;13.40;;;;;;;;;;4999479;28;20216;-79
2022/12/20 12:29:45;;;;;;;20.97;13.00;;;;;;;;;;5018432;28;20194;-78
2022/12/20 12:33:02;;;;;;;23.37;13.57;;;;;;;;;;5002859;28;20201;-78
2022/12/20 12:36:53;;;;;;;20.83;13.60;;;;;;;;;;5002356;28;20193;-77
2022/12/20 12:40:25;;;;;;;19.00;13.23;;;;;;;;;;5014574;28;20204;-78
2022/12/20 12:43:45;;;;;;;24.77;14.43;;;;;;;;;;5002461;28;20186;-77
2022/12/20 12:46:57;;;;;;;21.47;14.40;;;;;;;;;;5013866;28;20216;-78
2022/12/20 12:50:02;;;;;;;20.57;12.83;;;;;;;;;;5004814;28;20210;-78
2022/12/20 12:53:10;;;;;;;21.87;13.53;;;;;;;;;;5006287;28;20664;-78
2022/12/20 12:56:27;;;;;;;21.03;13.17;;;;;;;;;;5006530;28;20197;-78
2022/12/20 12:59:31;;;;;;;19.90;12.97;;;;;;;;;;5007019;28;20522;-78
2022/12/20 13:02:49;;;;;;;20.07;12.90;;;;;;;;;;4995873;28;20228;-78
2022/12/20 13:05:53;;;;;;;21.07;13.13;;;;;;;;;;5007534;28;20210;-78
2022/12/20 13:09:03;;;;;;;24.80;14.20;;;;;;;;;;5009293;28;20185;-78
2022/12/20 13:12:35;;;;;;;25.77;15.87;;;;;;;;;;4990586;28;20229;-79
2022/12/20 13:15:39;;;;;;;21.77;14.70;;;;;;;;;;4997944;28;20204;-79
2022/12/20 13:18:58;;;;;;;23.47;14.43;;;;;;;;;;4987525;28;20185;-80
2022/12/20 13:22:11;;;;;;;21.63;14.23;;;;;;;;;;4987910;28;20219;-79
2022/12/20 13:25:29;;;;;;;26.53;15.67;;;;;;;;;;4997986;28;20189;-80
2022/12/20 13:28:33;;;;;;;24.77;15.60;;;;;;;;;;5020910;28;20222;-80
2022/12/20 13:31:38;;;;;;;23.43;15.10;;;;;;;;;;4997958;28;20217;-80
2022/12/20 13:34:56;;;;;;;26.37;15.87;;;;;;;;;;4986369;28;20197;-79
2022/12/20 13:38:10;;;;;;;27.63;15.97;;;;;;;;;;5020381;28;20557;-80
2022/12/20 13:41:52;;;;;;;24.00;15.13;;;;;;;;;;4997731;28;20213;-80
2022/12/20 13:45:01;;;;;;;24.37;15.10;;;;;;;;;;4952585;28;20206;-79
2022/12/20 13:48:07;;;;;;;24.97;15.67;;;;;;;;;;5007801;28;20216;-79
2022/12/20 13:51:23;;;;;;;26.17;16.00;;;;;;;;;;4997619;28;20225;-79
2022/12/20 13:54:27;;;;;;;26.70;15.90;;;;;;;;;;5008179;28;20197;-79
2022/12/20 13:57:40;;;;;;;26.27;16.73;;;;;;;;;;5018299;28;20189;-79
2022/12/20 14:00:46;;;;;;;28.77;16.17;;;;;;;;;;5011410;28;20218;-79
2022/12/20 14:03:52;;;;;;;26.57;16.10;;;;;;;;;;4998743;28;20192;-79
2022/12/20 14:06:58;;;;;;;26.73;17.13;;;;;;;;;;5020227;28;20209;-79
2022/12/20 14:10:15;;;;;;;26.53;16.47;;;;;;;;;;4987629;28;20181;-79
2022/12/20 14:13:24;;;;;;;27.43;17.03;;;;;;;;;;5033168;28;20617;-78
2022/12/20 14:16:32;;;;;;;28.30;17.73;;;;;;;;;;5032284;28;20186;-79
2022/12/20 14:19:36;;;;;;;28.63;17.40;;;;;;;;;;4998854;28;20189;-79
2022/12/20 14:23:04;;;;;;;28.63;17.90;;;;;;;;;;5033401;28;20593;-79
2022/12/20 14:26:15;;;;;;;29.50;18.20;;;;;;;;;;5023123;28;20183;-79
2022/12/20 14:29:28;;;;;;;28.67;17.57;;;;;;;;;;5011453;28;20656;-79
2022/12/20 14:32:32;;;;;;;30.97;18.17;;;;;;;;;;4999754;28;20225;-79
2022/12/20 14:35:36;;;;;;;32.10;19.27;;;;;;;;;;4999988;28;20261;-79
2022/12/20 14:38:43;;;;;;;35.43;19.10;;;;;;;;;;5023183;28;20185;-79
2022/12/20 14:42:14;;;;;;;29.47;17.33;;;;;;;;;;4987870;28;20226;-79
2022/12/20 14:45:22;;;;;;;31.70;18.50;;;;;;;;;;4998487;28;20185;-79
2022/12/20 14:48:26;;;;;;;34.43;18.83;;;;;;;;;;5008663;28;20217;-79
2022/12/20 14:51:31;;;;;;;33.27;19.07;;;;;;;;;;5008862;28;20217;-79
2022/12/20 14:54:46;;;;;;;28.20;18.33;;;;;;;;;;5010363;28;20193;-79
2022/12/20 14:57:55;;;;;;;30.17;18.50;;;;;;;;;;5021974;28;20177;-78
2022/12/20 15:01:14;;;;;;;32.57;19.00;;;;;;;;;;4996918;28;20226;-79
2022/12/20 15:04:21;;;;;;;33.43;20.00;;;;;;;;;;4996868;28;20204;-79
2022/12/20 15:07:30;;;;;;;31.67;19.13;;;;;;;;;;4998917;28;20313;-79
2022/12/20 15:10:35;;;;;;;31.03;19.03;;;;;;;;;;4997648;28;20178;-79
2022/12/20 15:13:45;;;;;;;31.53;18.83;;;;;;;;;;5006525;28;20185;-79
2022/12/20 15:16:50;;;;;;;30.33;18.13;;;;;;;;;;5006193;28;20181;-78
2022/12/20 15:19:55;;;;;;;32.97;18.20;;;;;;;;;;5008664;28;20534;-78
2022/12/20 15:23:00;;;;;;;30.57;19.10;;;;;;;;;;5008088;28;20185;-78
2022/12/20 15:26:04;;;;;;;30.43;18.30;;;;;;;;;;4996161;28;20201;-79
2022/12/20 15:29:16;;;;;;;36.77;19.83;;;;;;;;;;4995162;28;20216;-78
2022/12/20 15:32:24;;;;;;;30.10;18.33;;;;;;;;;;5007748;28;20220;-78
2022/12/20 15:35:29;;;;;;;36.37;21.23;;;;;;;;;;5018691;28;20201;-79
2022/12/20 15:38:32;;;;;;;40.43;22.50;;;;;;;;;;4985031;28;20186;-79
2022/12/20 15:41:41;;;;;;;38.30;21.50;;;;;;;;;;5022094;28;21432;-79
2022/12/20 15:44:45;;;;;;;34.43;20.70;;;;;;;;;;5021871;28;20603;-79
2022/12/20 15:47:50;;;;;;;39.47;21.73;;;;;;;;;;4996128;28;20647;-78
2022/12/20 15:50:58;;;;;;;36.03;21.30;;;;;;;;;;5018724;28;20656;-79
2022/12/20 15:54:05;;;;;;;34.67;20.73;;;;;;;;;;4983125;28;20617;-78
2022/12/20 15:57:13;;;;;;;40.80;22.17;;;;;;;;;;5005021;28;20553;-78
2022/12/20 16:00:17;;;;;;;36.20;22.13;;;;;;;;;;4994596;28;20685;-78
2022/12/20 16:03:25;;;;;;;39.50;22.40;;;;;;;;;;4994131;28;20547;-78
2022/12/20 16:06:29;;;;;;;34.67;20.93;;;;;;;;;;5027893;28;20615;-78
2022/12/20 16:09:33;;;;;;;32.73;19.77;;;;;;;;;;4981896;28;20544;-78
2022/12/20 16:12:37;;;;;;;35.93;20.20;;;;;;;;;;5028602;28;20639;-78
2022/12/20 16:15:42;;;;;;;34.03;20.70;;;;;;;;;;5006590;28;20581;-78
2022/12/20 16:18:46;;;;;;;37.97;22.13;;;;;;;;;;4996534;28;20536;-78
2022/12/20 16:21:51;;;;;;;35.37;20.70;;;;;;;;;;5018995;28;20634;-78
2022/12/20 16:24:55;;;;;;;41.73;22.10;;;;;;;;;;5006554;28;20544;-78
2022/12/20 16:27:59;;;;;;;39.50;23.77;;;;;;;;;;5005283;28;20593;-78
2022/12/20 16:31:22;;;;;;;36.10;21.83;;;;;;;;;;5002725;28;20632;-78
2022/12/20 16:34:26;;;;;;;35.03;21.33;;;;;;;;;;5014267;28;20553;-77
2022/12/20 16:37:30;;;;;;;35.73;21.10;;;;;;;;;;5014580;28;20550;-78
2022/12/20 16:40:35;;;;;;;37.37;20.70;;;;;;;;;;5002640;28;20540;-77
2022/12/20 16:43:40;;;;;;;43.27;23.47;;;;;;;;;;5015895;28;20188;-78
2022/12/20 16:46:44;;;;;;;34.07;19.83;;;;;;;;;;5002729;28;20544;-78
2022/12/20 16:49:48;;;;;;;34.90;19.37;;;;;;;;;;4991081;28;20544;-78
2022/12/20 16:52:52;;;;;;;40.80;23.03;;;;;;;;;;5002380;28;21013;-77
2022/12/20 16:55:57;;;;;;;49.03;28.03;;;;;;;;;;5002252;28;20891;-78
2022/12/20 16:59:01;;;;;;;40.80;26.07;;;;;;;;;;5013411;28;21117;-78
2022/12/20 17:02:31;;;;;;;44.00;25.23;;;;;;;;;;4991430;28;20639;-78
2022/12/20 17:05:36;;;;;;;37.20;22.27;;;;;;;;;;5001843;28;20615;-77
2022/12/20 17:08:41;;;;;;;43.03;23.47;;;;;;;;;;4990372;28;20990;-77
2022/12/20 17:11:46;;;;;;;42.03;22.43;;;;;;;;;;4990491;28;20643;-78
2022/12/20 17:14:50;;;;;;;39.43;23.03;;;;;;;;;;4979601;28;20920;-78
2022/12/20 17:17:54;;;;;;;46.07;22.20;;;;;;;;;;5002026;28;20920;-78
2022/12/20 17:21:00;;;;;;;36.30;21.40;;;;;;;;;;4990214;28;20636;-77
2022/12/20 17:24:05;;;;;;;35.87;21.43;;;;;;;;;;4990538;28;20548;-77
2022/12/20 17:27:09;;;;;;;33.30;20.83;;;;;;;;;;4990541;28;20599;-77
2022/12/20 17:30:14;;;;;;;34.97;21.40;;;;;;;;;;5001463;28;20605;-77
2022/12/20 17:33:18;;;;;;;36.13;21.17;;;;;;;;;;5004010;28;20556;-78
2022/12/20 17:36:23;;;;;;;32.23;19.73;;;;;;;;;;5006649;28;20579;-77
2022/12/20 17:39:28;;;;;;;36.00;20.03;;;;;;;;;;5005340;28;20548;-77
2022/12/20 17:42:32;;;;;;;34.83;20.00;;;;;;;;;;5017265;28;20631;-77
2022/12/20 17:45:37;;;;;;;33.17;20.13;;;;;;;;;;5005493;28;20550;-77
2022/12/20 17:48:41;;;;;;;36.63;20.87;;;;;;;;;;5004962;28;20600;-77
2022/12/20 17:51:46;;;;;;;38.93;23.43;;;;;;;;;;4982282;28;20640;-77
2022/12/20 17:54:50;;;;;;;45.73;26.57;;;;;;;;;;4993605;28;20911;-77
2022/12/20 17:57:54;;;;;;;43.03;24.03;;;;;;;;;;5016273;28;20544;-77
2022/12/20 18:00:58;;;;;;;41.13;22.70;;;;;;;;;;5007550;28;20988;-78
2022/12/20 18:04:09;;;;;;;43.63;23.17;;;;;;;;;;4996312;28;20607;-78
2022/12/20 18:07:13;;;;;;;54.63;31.97;;;;;;;;;;5008421;28;20546;-77
2022/12/20 18:10:17;;;;;;;44.47;29.47;;;;;;;;;;4985298;28;21116;-77
2022/12/20 18:13:21;;;;;;;45.57;26.33;;;;;;;;;;5031660;28;20565;-78
2022/12/20 18:16:28;;;;;;;44.50;24.27;;;;;;;;;;5008722;28;20548;-78
2022/12/20 18:19:33;;;;;;;41.60;24.30;;;;;;;;;;5030467;28;20540;-78
2022/12/20 18:22:37;;;;;;;34.17;21.13;;;;;;;;;;5007305;28;21121;-78
2022/12/20 18:25:41;;;;;;;41.80;24.50;;;;;;;;;;4996891;28;20549;-79
2022/12/20 18:28:47;;;;;;;39.93;22.80;;;;;;;;;;4997702;28;20627;-79
2022/12/20 18:31:51;;;;;;;33.93;22.30;;;;;;;;;;5008076;28;20639;-78